Time;durP1;ratioP1;P1;durP2;ratioP2;P2;SDS_P1;SDS_P2;PMS_P1;PMS_P2;Temp;Humidity;BMP_temperature;BMP_pressure;BME280_temperature;BME280_humidity;BME280_pressure;Samples;Min_cycle;Max_cycle;Signal;HPM_P1;HPM_P2
2022/10/24 00:01:59;;;;;;;1.67;1.05;;;20.10;61.20;;;;;;6342875;28;20019;-67
2022/10/24 00:05:00;;;;;;;1.92;1.27;;;20.10;61.20;;;;;;6343138;28;20371;-67
2022/10/24 00:08:01;;;;;;;1.83;1.25;;;20.10;61.20;;;;;;6343017;28;20034;-67
2022/10/24 00:11:06;;;;;;;1.65;1.10;;;20.10;61.20;;;;;;6343039;28;20058;-69
2022/10/24 00:14:07;;;;;;;2.15;1.08;;;20.10;61.20;;;;;;6342561;28;20185;-68
2022/10/24 00:17:07;;;;;;;1.38;1.15;;;20.10;61.20;;;;;;6342952;28;20035;-68
2022/10/24 00:20:09;;;;;;;2.15;1.27;;;20.10;61.20;;;;;;6342998;28;20032;-68
2022/10/24 00:23:12;;;;;;;2.20;1.25;;;20.10;61.20;;;;;;6342427;28;20034;-68
2022/10/24 00:26:14;;;;;;;1.40;1.13;;;20.10;61.20;;;;;;6342461;28;20224;-67
2022/10/24 00:29:15;;;;;;;2.60;1.48;;;20.10;61.20;;;;;;6342462;28;20030;-68
2022/10/24 00:32:16;;;;;;;1.55;1.05;;;20.10;61.30;;;;;;6342320;28;20023;-68
2022/10/24 00:35:16;;;;;;;1.15;1.00;;;20.10;61.30;;;;;;6342654;28;20027;-67
2022/10/24 00:38:17;;;;;;;1.40;0.93;;;20.10;61.20;;;;;;6341822;28;20027;-67
2022/10/24 00:41:23;;;;;;;1.48;1.13;;;20.10;61.20;;;;;;6343004;28;20028;-68
2022/10/24 00:44:27;;;;;;;1.98;1.08;;;20.10;61.20;;;;;;6342393;28;20035;-68
2022/10/24 00:47:28;;;;;;;2.03;1.20;;;20.10;61.20;;;;;;6342174;28;20153;-67
2022/10/24 00:50:28;;;;;;;1.45;1.08;;;20.10;61.20;;;;;;6342019;28;20055;-68
2022/10/24 00:53:34;;;;;;;1.52;1.08;;;20.10;61.20;;;;;;6341961;28;20261;-68
2022/10/24 00:56:40;;;;;;;1.38;0.85;;;20.10;61.20;;;;;;6342793;28;20035;-68
2022/10/24 00:59:42;;;;;;;1.80;0.93;;;20.10;61.20;;;;;;6342216;28;20353;-68
2022/10/24 01:02:44;;;;;;;1.70;1.30;;;20.10;61.30;;;;;;6342040;28;20046;-68
2022/10/24 01:06:20;;;;;;;1.45;1.08;;;20.10;61.30;;;;;;6341885;28;20139;-67
2022/10/24 01:09:38;;;;;;;1.90;1.00;;;20.10;61.30;;;;;;6341887;28;20247;-68
2022/10/24 01:13:03;;;;;;;1.35;0.95;;;20.10;61.30;;;;;;6342259;28;20487;-67
2022/10/24 01:16:11;;;;;;;1.92;1.00;;;20.10;61.30;;;;;;6341638;28;20050;-67
2022/10/24 01:19:33;;;;;;;1.98;1.15;;;20.10;61.30;;;;;;6340505;28;20478;-68
2022/10/24 01:22:45;;;;;;;1.77;0.90;;;20.10;61.20;;;;;;6341592;28;20019;-67
2022/10/24 01:26:07;;;;;;;1.35;0.98;;;20.10;61.20;;;;;;6341749;28;20549;-68
2022/10/24 01:29:40;;;;;;;1.27;0.95;;;20.10;61.20;;;;;;6341700;28;20130;-68
2022/10/24 01:32:57;;;;;;;1.52;0.90;;;20.10;61.20;;;;;;6325515;28;20074;-68
2022/10/24 01:36:07;;;;;;;2.00;1.10;;;20.10;61.20;;;;;;6316490;28;20032;-68
2022/10/24 01:39:13;;;;;;;1.30;1.00;;;20.10;61.20;;;;;;6325092;28;20084;-67
2022/10/24 01:42:16;;;;;;;1.35;0.75;;;20.10;61.20;;;;;;6341768;28;20272;-68
2022/10/24 01:45:26;;;;;;;1.58;1.10;;;20.10;61.20;;;;;;6341309;28;20535;-67
2022/10/24 01:48:30;;;;;;;2.38;1.10;;;20.10;61.20;;;;;;6341742;28;20497;-67
2022/10/24 01:51:32;;;;;;;0.97;0.73;;;20.10;61.20;;;;;;6341729;28;20043;-68
2022/10/24 01:54:34;;;;;;;2.15;1.15;;;20.10;61.20;;;;;;6341718;28;20775;-68
2022/10/24 01:57:35;;;;;;;2.22;0.95;;;20.10;61.20;;;;;;6343279;28;20028;-68
2022/10/24 02:00:35;;;;;;;1.55;1.00;;;20.10;61.20;;;;;;6346680;28;20023;-68
2022/10/24 02:03:41;;;;;;;1.20;0.82;;;20.10;61.20;;;;;;6346812;28;20026;-68
2022/10/24 02:06:43;;;;;;;1.60;1.20;;;20.10;61.20;;;;;;6346172;28;20027;-67
2022/10/24 02:09:46;;;;;;;1.20;0.90;;;20.10;61.20;;;;;;6345596;28;20054;-67
2022/10/24 02:12:52;;;;;;;0.93;0.80;;;20.10;61.30;;;;;;6346112;27;20074;-68
2022/10/24 02:15:56;;;;;;;1.23;0.93;;;20.10;61.20;;;;;;6345948;28;20043;-67
2022/10/24 02:18:57;;;;;;;1.63;1.02;;;20.10;61.20;;;;;;6345370;28;20034;-67
2022/10/24 02:22:29;;;;;;;1.70;1.00;;;20.10;61.20;;;;;;6345807;27;20381;-68
2022/10/24 02:25:35;;;;;;;1.52;0.93;;;20.10;61.20;;;;;;6345691;27;20031;-68
2022/10/24 02:28:42;;;;;;;2.08;0.95;;;20.10;61.20;;;;;;6345553;28;20057;-67
2022/10/24 02:31:50;;;;;;;0.88;0.88;;;20.10;61.20;;;;;;6345418;28;20371;-68
2022/10/24 02:34:51;;;;;;;0.90;0.80;;;20.10;61.20;;;;;;6345285;28;20517;-67
2022/10/24 02:37:58;;;;;;;1.30;1.00;;;20.10;61.20;;;;;;6345600;28;20027;-67
2022/10/24 02:41:03;;;;;;;1.20;1.00;;;20.10;61.20;;;;;;6345482;28;20038;-68
2022/10/24 02:44:05;;;;;;;1.17;0.70;;;20.10;61.20;;;;;;6344932;28;20223;-68
2022/10/24 02:47:09;;;;;;;1.25;0.82;;;20.10;61.20;;;;;;6345260;28;20073;-68
2022/10/24 02:50:11;;;;;;;2.78;0.93;;;20.10;61.20;;;;;;6344745;28;20061;-67
2022/10/24 02:53:14;;;;;;;1.17;0.80;;;20.10;61.20;;;;;;6345550;28;20490;-68
2022/10/24 02:56:14;;;;;;;1.10;0.80;;;20.10;61.30;;;;;;6344527;28;20662;-68
2022/10/24 02:59:15;;;;;;;1.20;0.90;;;20.10;61.20;;;;;;6345234;28;20020;-68
2022/10/24 03:02:16;;;;;;;1.13;0.80;;;20.10;61.20;;;;;;6344268;28;20094;-68
2022/10/24 03:05:16;;;;;;;1.30;0.82;;;20.10;61.20;;;;;;6344764;28;20077;-67
2022/10/24 03:08:17;;;;;;;1.85;0.90;;;20.10;61.20;;;;;;6344916;28;20024;-68
2022/10/24 03:11:18;;;;;;;1.42;0.98;;;20.10;61.20;;;;;;6343982;28;20070;-68
2022/10/24 03:14:18;;;;;;;1.05;0.80;;;20.10;61.20;;;;;;6344743;27;20027;-68
2022/10/24 03:17:20;;;;;;;1.45;0.95;;;20.10;61.20;;;;;;6344177;28;20414;-68
2022/10/24 03:20:21;;;;;;;1.27;0.85;;;20.10;61.30;;;;;;6344138;28;20020;-67
2022/10/24 03:23:22;;;;;;;1.15;0.90;;;20.10;61.20;;;;;;6344171;28;20016;-68
2022/10/24 03:26:22;;;;;;;1.10;0.75;;;20.10;61.30;;;;;;6344173;28;20024;-68
2022/10/24 03:29:23;;;;;;;0.65;0.60;;;20.10;61.20;;;;;;6344184;28;20024;-68
2022/10/24 03:32:23;;;;;;;1.13;0.95;;;20.10;61.20;;;;;;6344100;28;20038;-67
2022/10/24 03:35:24;;;;;;;1.15;0.80;;;20.10;61.20;;;;;;6343589;28;20038;-67
2022/10/24 03:38:25;;;;;;;1.67;1.00;;;20.10;61.20;;;;;;6343820;28;20069;-68
2022/10/24 03:41:25;;;;;;;0.85;0.80;;;20.10;61.10;;;;;;6344087;28;20168;-67
2022/10/24 03:44:26;;;;;;;2.90;0.60;;;20.10;61.30;;;;;;6343716;28;20500;-68
2022/10/24 03:47:27;;;;;;;1.20;0.70;;;20.10;61.30;;;;;;6343601;28;20073;-67
2022/10/24 03:50:27;;;;;;;1.05;0.70;;;20.10;61.20;;;;;;6343082;28;20478;-67
2022/10/24 03:53:28;;;;;;;1.23;0.63;;;20.10;61.10;;;;;;6343597;28;20039;-67
2022/10/24 03:56:29;;;;;;;0.70;0.63;;;20.10;61.00;;;;;;6343164;28;20024;-68
2022/10/24 03:59:29;;;;;;;1.08;0.77;;;20.10;61.10;;;;;;6343498;28;20359;-68
2022/10/24 04:02:30;;;;;;;0.50;0.50;;;20.10;61.10;;;;;;6343320;28;20019;-68
2022/10/24 04:05:31;;;;;;;0.85;0.63;;;20.10;61.20;;;;;;6342683;27;20030;-68
2022/10/24 04:08:32;;;;;;;1.20;0.93;;;20.10;61.20;;;;;;6342948;28;20020;-68
2022/10/24 04:11:32;;;;;;;1.00;0.82;;;20.10;61.10;;;;;;6343170;28;20028;-67
2022/10/24 04:14:33;;;;;;;1.10;0.80;;;20.10;61.20;;;;;;6342908;28;20103;-68
2022/10/24 04:17:34;;;;;;;1.20;0.80;;;20.10;61.00;;;;;;6342963;28;20524;-68
2022/10/24 04:20:35;;;;;;;0.60;0.60;;;20.10;61.20;;;;;;6342499;28;20023;-68
2022/10/24 04:23:39;;;;;;;1.05;0.63;;;20.10;61.10;;;;;;6342638;28;20027;-68
2022/10/24 04:26:41;;;;;;;1.25;0.63;;;20.10;61.20;;;;;;6342541;28;20019;-67
2022/10/24 04:29:41;;;;;;;1.08;0.80;;;20.10;61.00;;;;;;6342760;28;20028;-68
2022/10/24 04:32:42;;;;;;;1.30;1.00;;;20.10;61.20;;;;;;6342063;28;20027;-67
2022/10/24 04:35:47;;;;;;;1.38;0.73;;;20.10;61.00;;;;;;6342632;28;20019;-66
2022/10/24 04:38:47;;;;;;;0.77;0.60;;;20.10;61.80;;;;;;6342945;28;20023;-67
2022/10/24 04:41:48;;;;;;;0.80;0.80;;;20.10;61.10;;;;;;6342465;28;20077;-68
2022/10/24 04:44:49;;;;;;;1.05;0.70;;;20.10;61.00;;;;;;6342173;28;20023;-68
2022/10/24 04:47:49;;;;;;;1.00;0.70;;;20.10;61.20;;;;;;6341760;28;20074;-68
2022/10/24 04:50:50;;;;;;;1.13;0.90;;;20.10;61.00;;;;;;6340833;28;20077;-68
2022/10/24 04:53:51;;;;;;;1.20;0.88;;;20.10;61.10;;;;;;6341912;28;20042;-67
2022/10/24 04:56:51;;;;;;;1.10;0.60;;;20.10;61.30;;;;;;6341888;28;20023;-68
2022/10/24 05:00:41;;;;;;;1.00;0.63;;;20.10;61.00;;;;;;6342883;28;20020;-68
2022/10/24 05:03:42;;;;;;;1.73;0.70;;;20.10;61.20;;;;;;6335665;28;20058;-68
2022/10/24 05:06:42;;;;;;;0.70;0.68;;;20.10;61.10;;;;;;6342173;28;20028;-67
2022/10/24 05:09:43;;;;;;;1.15;0.75;;;20.10;61.00;;;;;;6341829;28;20030;-67
2022/10/24 05:12:44;;;;;;;0.60;0.57;;;20.10;61.20;;;;;;6342214;28;20347;-68
2022/10/24 05:15:44;;;;;;;1.05;0.82;;;20.10;61.30;;;;;;6341828;28;20078;-68
2022/10/24 05:18:45;;;;;;;1.83;1.00;;;20.10;61.30;;;;;;6341846;28;20031;-68
2022/10/24 05:21:45;;;;;;;1.05;0.73;;;20.10;61.30;;;;;;6342058;28;20011;-68
2022/10/24 05:24:46;;;;;;;1.42;0.90;;;20.10;61.20;;;;;;6342437;28;20026;-68
2022/10/24 05:27:47;;;;;;;1.25;0.90;;;20.10;61.30;;;;;;6341779;28;20098;-67
2022/10/24 05:30:47;;;;;;;1.05;0.68;;;20.10;61.30;;;;;;6341364;28;20042;-68
2022/10/24 05:33:48;;;;;;;0.90;0.70;;;20.10;61.30;;;;;;6345188;28;20107;-68
2022/10/24 05:36:49;;;;;;;0.63;0.63;;;20.10;61.20;;;;;;6346910;28;20038;-68
2022/10/24 05:39:49;;;;;;;0.70;0.60;;;20.10;61.20;;;;;;6347382;28;20031;-68
2022/10/24 05:42:51;;;;;;;0.90;0.80;;;20.10;61.20;;;;;;6346359;28;20016;-68
2022/10/24 05:45:51;;;;;;;1.60;0.90;;;20.10;61.10;;;;;;6347123;28;20088;-68
2022/10/24 05:48:52;;;;;;;1.08;0.85;;;20.10;61.20;;;;;;6346344;28;20031;-69
2022/10/24 05:51:53;;;;;;;0.98;0.70;;;20.10;61.20;;;;;;6346198;28;20052;-68
2022/10/24 05:54:53;;;;;;;0.98;0.80;;;20.10;61.10;;;;;;6346640;28;20055;-68
2022/10/24 05:57:54;;;;;;;1.42;0.80;;;20.10;61.20;;;;;;6346357;28;20125;-68
2022/10/24 06:00:54;;;;;;;0.75;0.63;;;20.10;61.10;;;;;;6340780;28;20026;-67
2022/10/24 06:03:55;;;;;;;0.80;0.80;;;20.10;61.20;;;;;;6340181;28;20055;-68
2022/10/24 06:06:56;;;;;;;1.17;0.60;;;20.10;61.10;;;;;;6348161;28;20030;-68
2022/10/24 06:09:57;;;;;;;1.23;0.80;;;20.10;61.20;;;;;;6347240;28;20035;-67
2022/10/24 06:12:58;;;;;;;1.30;0.93;;;20.10;61.10;;;;;;6347336;28;20027;-68
2022/10/24 06:15:58;;;;;;;0.70;0.70;;;20.10;61.20;;;;;;6347896;28;20036;-68
2022/10/24 06:18:59;;;;;;;1.00;0.60;;;20.10;61.10;;;;;;6346243;28;20469;-67
2022/10/24 06:22:00;;;;;;;1.10;0.70;;;20.10;61.10;;;;;;6347860;28;20415;-68
2022/10/24 06:25:01;;;;;;;0.77;0.75;;;20.10;61.10;;;;;;6347217;28;20102;-68
2022/10/24 06:28:02;;;;;;;1.38;1.00;;;20.10;61.20;;;;;;6347583;28;20055;-67
2022/10/24 06:31:03;;;;;;;1.00;0.75;;;20.10;61.20;;;;;;6347333;28;20035;-68
2022/10/24 06:34:03;;;;;;;1.45;1.10;;;20.10;61.00;;;;;;6347871;28;20024;-68
2022/10/24 06:37:04;;;;;;;0.98;0.80;;;20.10;61.20;;;;;;6331296;27;20682;-67
2022/10/24 06:40:05;;;;;;;0.88;0.73;;;20.10;61.00;;;;;;6343925;28;20039;-67
2022/10/24 06:43:07;;;;;;;1.02;0.80;;;20.10;60.80;;;;;;6339991;27;20353;-67
2022/10/24 06:46:11;;;;;;;1.27;0.80;;;20.10;61.20;;;;;;6335415;28;20031;-68
2022/10/24 06:49:13;;;;;;;0.90;0.80;;;20.10;61.10;;;;;;6346166;28;20023;-67
2022/10/24 06:52:14;;;;;;;1.45;1.05;;;20.10;61.10;;;;;;6346166;28;20044;-68
2022/10/24 06:55:15;;;;;;;1.20;0.73;;;20.10;61.10;;;;;;6345644;28;20103;-68
2022/10/24 06:58:15;;;;;;;1.45;1.00;;;20.10;61.10;;;;;;6345521;28;20069;-68
2022/10/24 07:01:18;;;;;;;1.63;0.98;;;20.10;61.20;;;;;;6346891;28;20016;-68
2022/10/24 07:04:19;;;;;;;1.85;0.80;;;20.10;61.20;;;;;;6345278;28;20023;-68
2022/10/24 07:07:20;;;;;;;0.70;0.60;;;20.10;61.20;;;;;;6345780;28;20034;-68
2022/10/24 07:10:21;;;;;;;1.45;0.98;;;20.20;61.20;;;;;;6345406;28;20394;-68
2022/10/24 07:13:22;;;;;;;1.55;0.90;;;20.10;61.20;;;;;;6343855;28;20059;-68
2022/10/24 07:16:24;;;;;;;1.00;0.88;;;20.10;61.20;;;;;;6345463;28;20060;-67
2022/10/24 07:19:24;;;;;;;1.10;0.70;;;20.10;61.20;;;;;;6345469;28;20024;-68
2022/10/24 07:22:25;;;;;;;1.65;0.93;;;20.20;61.30;;;;;;6345480;28;20036;-68
2022/10/24 07:25:25;;;;;;;1.33;0.88;;;20.20;61.20;;;;;;6345312;28;20047;-68
2022/10/24 07:28:26;;;;;;;1.15;0.80;;;20.20;61.40;;;;;;6345219;28;20050;-68
2022/10/24 07:31:31;;;;;;;1.10;0.88;;;20.20;61.20;;;;;;6344885;28;20402;-67
2022/10/24 07:34:31;;;;;;;1.35;0.70;;;20.20;61.30;;;;;;6345012;28;20093;-68
2022/10/24 07:37:32;;;;;;;1.08;0.90;;;20.10;61.20;;;;;;6345134;28;20035;-67
2022/10/24 07:40:34;;;;;;;1.90;0.95;;;20.20;61.30;;;;;;6344502;28;20032;-68
2022/10/24 07:43:34;;;;;;;0.75;0.75;;;20.20;61.30;;;;;;6344945;28;20072;-68
2022/10/24 07:46:36;;;;;;;1.27;0.80;;;20.20;61.30;;;;;;6345129;28;20031;-68
2022/10/24 07:49:37;;;;;;;1.80;0.90;;;20.20;61.30;;;;;;6344375;28;20506;-68
2022/10/24 07:52:37;;;;;;;0.85;0.80;;;20.20;61.30;;;;;;6344243;28;20061;-68
2022/10/24 07:55:40;;;;;;;1.33;0.95;;;20.20;61.30;;;;;;6343956;28;20076;-68
2022/10/24 07:58:42;;;;;;;1.02;0.80;;;20.20;61.30;;;;;;6344250;28;20027;-68
2022/10/24 08:01:43;;;;;;;1.00;0.77;;;20.20;61.30;;;;;;6344915;28;20478;-67
2022/10/24 08:04:43;;;;;;;1.23;1.00;;;20.20;61.20;;;;;;6343122;28;20074;-67
2022/10/24 08:07:44;;;;;;;1.05;0.75;;;20.20;61.40;;;;;;6344758;28;20031;-66
2022/10/24 08:10:45;;;;;;;4.53;0.80;;;20.10;61.20;;;;;;6343738;28;20071;-67
2022/10/24 08:13:46;;;;;;;3.85;1.10;;;20.20;61.40;;;;;;6342532;28;20035;-68
2022/10/24 08:16:47;;;;;;;2.72;1.67;;;20.10;61.30;;;;;;6343869;28;20116;-67
2022/10/24 08:19:48;;;;;;;1.80;1.10;;;20.20;61.40;;;;;;6327726;28;20035;-68
2022/10/24 08:22:49;;;;;;;1.73;0.93;;;20.20;61.40;;;;;;6327189;27;20032;-68
2022/10/24 08:25:49;;;;;;;1.30;0.90;;;20.10;61.30;;;;;;6337565;27;20474;-67
2022/10/24 08:28:52;;;;;;;1.10;0.85;;;20.20;61.40;;;;;;6340809;27;20026;-67
2022/10/24 08:31:54;;;;;;;4.20;1.20;;;20.20;61.40;;;;;;6357036;27;20047;-67
2022/10/24 08:34:56;;;;;;;1.40;0.93;;;20.20;61.40;;;;;;6359640;27;20076;-68
2022/10/24 08:37:57;;;;;;;1.50;0.90;;;20.20;61.40;;;;;;6328592;28;20501;-68
2022/10/24 08:40:59;;;;;;;2.10;1.02;;;20.20;61.40;;;;;;6342901;28;20023;-68
2022/10/24 08:44:03;;;;;;;1.60;1.10;;;20.20;61.40;;;;;;6343593;27;20024;-68
2022/10/24 08:47:26;;;;;;;2.17;0.95;;;20.20;61.40;;;;;;6343232;28;20043;-68
2022/10/24 08:50:30;;;;;;;2.70;1.38;;;20.20;61.40;;;;;;6342691;28;20052;-67
2022/10/24 08:53:32;;;;;;;1.45;1.05;;;20.20;61.40;;;;;;6343719;28;20035;-67
2022/10/24 08:56:33;;;;;;;2.47;0.90;;;20.20;61.40;;;;;;6343028;28;20023;-67
2022/10/24 08:59:35;;;;;;;3.78;0.90;;;20.20;61.40;;;;;;6343141;28;20034;-68
2022/10/24 09:02:38;;;;;;;1.92;1.02;;;20.20;61.40;;;;;;6343268;28;20023;-67
2022/10/24 09:05:46;;;;;;;2.33;1.27;;;20.20;61.40;;;;;;6342578;28;20802;-68
2022/10/24 09:09:02;;;;;;;1.20;1.00;;;20.20;61.40;;;;;;6348552;28;20088;-67
2022/10/24 09:12:12;;;;;;;1.30;0.88;;;20.20;61.40;;;;;;6348478;27;20040;-67
2022/10/24 09:15:28;;;;;;;1.60;1.17;;;20.20;61.40;;;;;;6348049;28;20028;-67
2022/10/24 09:18:36;;;;;;;1.40;1.00;;;20.20;61.40;;;;;;6347912;28;20038;-68
2022/10/24 09:21:40;;;;;;;1.98;1.00;;;20.20;61.40;;;;;;6346750;28;20107;-68
2022/10/24 09:24:46;;;;;;;2.30;1.02;;;20.20;61.50;;;;;;6348104;27;20039;-68
2022/10/24 09:27:47;;;;;;;3.28;1.00;;;20.20;61.40;;;;;;6347680;28;20068;-68
2022/10/24 09:30:49;;;;;;;1.77;1.10;;;20.20;61.50;;;;;;6347953;28;20106;-68
2022/10/24 09:33:51;;;;;;;1.65;1.05;;;20.20;61.50;;;;;;6347728;28;20032;-67
2022/10/24 09:36:52;;;;;;;1.83;1.00;;;20.20;61.40;;;;;;6347847;28;20023;-68
2022/10/24 09:40:33;;;;;;;2.03;1.10;;;20.20;61.40;;;;;;6347331;28;20420;-68
2022/10/24 09:43:43;;;;;;;1.55;1.00;;;20.20;61.40;;;;;;6337519;28;20539;-68
2022/10/24 09:46:46;;;;;;;1.70;1.00;;;20.20;61.40;;;;;;6346026;27;20033;-67
2022/10/24 09:49:47;;;;;;;1.33;1.00;;;20.20;61.40;;;;;;6348597;28;20096;-68
2022/10/24 09:52:50;;;;;;;1.25;0.80;;;20.20;61.40;;;;;;6348235;28;20115;-68
2022/10/24 09:55:53;;;;;;;4.97;1.23;;;20.20;61.40;;;;;;6344369;28;20510;-68
2022/10/24 09:58:54;;;;;;;3.45;1.40;;;20.20;61.40;;;;;;6348744;28;20050;-68
2022/10/24 10:02:12;;;;;;;2.00;1.20;;;20.10;61.40;;;;;;6342060;27;20377;-68
2022/10/24 10:05:18;;;;;;;3.35;1.27;;;20.20;61.50;;;;;;6331553;27;20035;-68
2022/10/24 10:08:29;;;;;;;1.55;1.02;;;20.20;61.50;;;;;;6318633;27;20027;-68
2022/10/24 10:11:32;;;;;;;1.65;1.02;;;20.20;61.40;;;;;;6329477;28;20122;-68
2022/10/24 10:14:40;;;;;;;1.50;1.13;;;20.10;61.40;;;;;;6322618;28;20028;-69
2022/10/24 10:17:52;;;;;;;2.00;1.02;;;20.20;61.50;;;;;;6338213;28;20447;-68
2022/10/24 10:21:05;;;;;;;3.13;1.35;;;20.10;61.40;;;;;;6347345;28;20139;-68
2022/10/24 10:24:24;;;;;;;1.92;1.00;;;20.20;61.40;;;;;;6347567;28;20486;-68
2022/10/24 10:27:31;;;;;;;1.60;1.20;;;20.10;61.40;;;;;;6347489;28;20015;-68
2022/10/24 10:30:32;;;;;;;2.10;1.30;;;20.10;61.40;;;;;;6347318;28;20386;-68
2022/10/24 10:33:46;;;;;;;1.80;1.10;;;20.10;61.40;;;;;;6347204;27;20035;-68
2022/10/24 10:36:53;;;;;;;1.67;0.88;;;20.20;61.50;;;;;;6347335;28;20045;-69
2022/10/24 10:40:15;;;;;;;2.80;1.23;;;20.20;61.50;;;;;;6347294;28;20451;-68
2022/10/24 10:43:41;;;;;;;1.80;1.00;;;20.20;61.50;;;;;;6346766;28;20470;-68
2022/10/24 10:47:01;;;;;;;2.80;1.25;;;20.20;61.50;;;;;;6346951;28;20411;-68
2022/10/24 10:50:17;;;;;;;3.20;1.17;;;20.10;61.40;;;;;;6339725;27;20703;-68
2022/10/24 10:53:47;;;;;;;2.17;1.10;;;20.10;61.40;;;;;;6345636;28;20093;-69
2022/10/24 10:56:53;;;;;;;1.58;1.05;;;20.10;61.40;;;;;;6347120;28;20023;-67
2022/10/24 11:00:01;;;;;;;1.60;1.20;;;20.20;61.50;;;;;;6344424;28;20027;-68
2022/10/24 11:04:03;;;;;;;2.63;0.98;;;20.10;61.40;;;;;;6346914;28;20030;-68
2022/10/24 11:07:21;;;;;;;2.53;1.40;;;20.10;61.40;;;;;;6297580;28;20043;-68
2022/10/24 11:10:30;;;;;;;2.00;0.98;;;20.20;61.50;;;;;;6346214;28;20114;-68
2022/10/24 11:13:42;;;;;;;1.83;1.33;;;20.10;61.40;;;;;;6330397;28;20036;-68
2022/10/24 11:16:43;;;;;;;1.02;0.80;;;20.10;61.40;;;;;;6341042;28;20156;-67
2022/10/24 11:20:06;;;;;;;1.40;0.90;;;20.10;61.40;;;;;;6344104;28;20027;-68
2022/10/24 11:23:20;;;;;;;2.85;1.15;;;20.10;61.40;;;;;;6336672;27;20065;-68
2022/10/24 11:26:30;;;;;;;2.40;0.95;;;20.10;61.40;;;;;;6345956;28;20027;-68
2022/10/24 11:30:03;;;;;;;1.45;0.90;;;20.20;61.50;;;;;;6345251;28;20045;-68
2022/10/24 11:33:06;;;;;;;1.27;0.82;;;20.20;61.50;;;;;;6346040;28;20145;-69
2022/10/24 11:36:38;;;;;;;3.92;1.20;;;20.10;61.40;;;;;;6345749;28;20115;-68
2022/10/24 11:40:11;;;;;;;2.38;1.30;;;20.10;61.40;;;;;;6344306;28;20119;-68
2022/10/24 11:43:26;;;;;;;2.10;1.17;;;20.20;61.50;;;;;;6344997;28;20026;-68
2022/10/24 11:46:34;;;;;;;2.17;1.10;;;20.20;61.60;;;;;;6344636;28;20024;-67
2022/10/24 11:49:42;;;;;;;1.63;0.80;;;20.10;61.50;;;;;;6345254;28;20284;-68
2022/10/24 11:52:51;;;;;;;1.63;0.90;;;20.10;61.50;;;;;;6345233;28;20038;-68
2022/10/24 11:56:18;;;;;;;2.00;1.20;;;20.10;61.60;;;;;;6344724;28;20023;-67
2022/10/24 11:59:23;;;;;;;1.88;0.80;;;20.10;61.50;;;;;;6331281;28;20062;-68
2022/10/24 12:03:01;;;;;;;1.67;1.10;;;20.10;61.40;;;;;;6337472;28;20424;-68
2022/10/24 12:06:12;;;;;;;2.35;1.42;;;20.20;61.60;;;;;;6344679;28;20031;-68
2022/10/24 12:09:16;;;;;;;1.85;1.10;;;20.20;61.60;;;;;;6337939;27;20035;-68
2022/10/24 12:12:37;;;;;;;4.03;1.17;;;20.10;61.50;;;;;;6329855;28;20066;-67
2022/10/24 12:15:49;;;;;;;1.85;1.17;;;20.10;61.60;;;;;;6336621;27;20043;-67
2022/10/24 12:18:56;;;;;;;2.85;1.00;;;20.20;61.60;;;;;;6327485;28;20030;-67
2022/10/24 12:22:00;;;;;;;2.45;1.08;;;20.20;61.60;;;;;;6329185;27;20019;-67
2022/10/24 12:25:25;;;;;;;2.83;1.10;;;20.20;61.40;;;;;;6327811;28;20532;-68
2022/10/24 12:28:26;;;;;;;1.50;1.00;;;20.30;61.50;;;;;;6322427;28;20391;-68
2022/10/24 12:31:37;;;;;;;1.60;1.10;;;20.30;61.40;;;;;;6321223;28;20513;-68
2022/10/24 12:34:41;;;;;;;5.82;2.00;;;20.30;61.30;;;;;;6330705;28;20419;-68
2022/10/24 12:37:42;;;;;;;4.30;1.23;;;20.40;61.40;;;;;;6345024;28;20482;-67
2022/10/24 12:40:54;;;;;;;3.65;1.40;;;20.40;62.20;;;;;;6343550;28;20032;-68
2022/10/24 12:44:32;;;;;;;1.60;1.27;;;20.40;61.30;;;;;;6344387;28;20027;-69
2022/10/24 12:47:38;;;;;;;2.47;1.08;;;20.40;61.40;;;;;;6319443;28;20024;-68
2022/10/24 12:50:39;;;;;;;2.42;1.30;;;20.30;61.20;;;;;;6336733;28;20050;-67
2022/10/24 12:54:10;;;;;;;2.40;1.45;;;20.30;61.20;;;;;;6318859;28;20097;-68
2022/10/24 12:57:10;;;;;;;3.05;1.63;;;20.30;61.30;;;;;;6317653;28;20531;-68
2022/10/24 13:00:24;;;;;;;2.90;1.50;;;20.30;61.40;;;;;;6319095;28;20031;-68
2022/10/24 13:03:31;;;;;;;3.88;1.65;;;20.30;61.30;;;;;;6318311;28;20028;-68
2022/10/24 13:06:34;;;;;;;3.03;1.35;;;20.30;61.30;;;;;;6315809;28;20473;-67
2022/10/24 13:10:05;;;;;;;3.22;1.45;;;20.30;61.40;;;;;;6317283;28;20497;-68
2022/10/24 13:13:09;;;;;;;6.85;1.75;;;20.40;61.30;;;;;;6291168;28;20513;-68
2022/10/24 13:16:18;;;;;;;4.28;1.75;;;20.40;61.40;;;;;;6318208;28;20020;-68
2022/10/24 13:19:23;;;;;;;4.68;1.80;;;20.30;61.30;;;;;;6287414;28;20099;-68
2022/10/24 13:22:29;;;;;;;4.30;1.70;;;20.30;61.40;;;;;;6318550;28;20060;-68
2022/10/24 13:25:37;;;;;;;3.67;1.80;;;20.40;61.30;;;;;;6323193;28;20520;-68
2022/10/24 13:28:39;;;;;;;5.47;2.03;;;20.40;61.40;;;;;;6318861;28;20024;-68
2022/10/24 13:31:42;;;;;;;7.13;1.65;;;20.40;61.20;;;;;;6318342;28;20032;-68
2022/10/24 13:34:49;;;;;;;3.38;1.75;;;20.40;61.40;;;;;;6319129;28;20025;-67
2022/10/24 13:37:53;;;;;;;5.47;1.70;;;20.40;61.40;;;;;;6319377;28;20706;-68
2022/10/24 13:40:54;;;;;;;3.95;1.92;;;20.40;61.40;;;;;;6306981;28;20030;-68
2022/10/24 13:44:08;;;;;;;5.30;1.77;;;20.40;61.40;;;;;;6314288;28;20483;-69
2022/10/24 13:47:30;;;;;;;4.72;1.60;;;20.40;61.30;;;;;;6317850;28;20024;-68
2022/10/24 13:50:35;;;;;;;3.85;1.60;;;20.40;61.40;;;;;;6316199;28;20517;-68
2022/10/24 13:53:50;;;;;;;4.93;2.35;;;20.40;61.30;;;;;;6319571;28;20028;-69
2022/10/24 13:56:50;;;;;;;4.25;1.50;;;20.30;61.20;;;;;;6322429;28;20130;-69
2022/10/24 14:00:00;;;;;;;3.03;1.60;;;20.40;61.30;;;;;;6322787;28;20024;-69
2022/10/24 14:03:04;;;;;;;3.53;1.55;;;20.30;61.20;;;;;;6320486;28;20443;-69
2022/10/24 14:06:07;;;;;;;1.85;1.20;;;20.30;61.20;;;;;;6322458;28;20395;-69
2022/10/24 14:09:10;;;;;;;2.20;1.33;;;20.30;61.20;;;;;;6304673;28;20486;-68
2022/10/24 14:12:19;;;;;;;4.00;1.73;;;20.30;61.20;;;;;;6320742;28;20101;-68
2022/10/24 14:15:29;;;;;;;4.43;1.52;;;20.30;61.20;;;;;;6320738;28;20027;-68
2022/10/24 14:18:31;;;;;;;6.13;1.90;;;20.40;61.40;;;;;;6294751;28;20032;-69
2022/10/24 14:21:42;;;;;;;4.47;1.50;;;20.40;61.40;;;;;;6311582;28;20036;-69
2022/10/24 14:24:44;;;;;;;4.75;1.77;;;20.40;61.50;;;;;;6321082;28;20031;-68
2022/10/24 14:27:45;;;;;;;4.85;1.90;;;20.40;61.40;;;;;;6319296;28;20258;-69
2022/10/24 14:30:57;;;;;;;4.78;1.70;;;20.40;61.50;;;;;;6320381;28;20028;-69
2022/10/24 14:33:58;;;;;;;2.05;1.50;;;20.40;61.50;;;;;;6318164;28;20439;-68
2022/10/24 14:37:04;;;;;;;4.85;1.60;;;20.40;61.50;;;;;;6319864;28;20032;-69
2022/10/24 14:40:10;;;;;;;4.40;2.28;;;20.40;61.30;;;;;;6321302;28;20028;-68
2022/10/24 14:43:17;;;;;;;2.65;1.38;;;20.40;61.50;;;;;;6320789;28;20058;-69
2022/10/24 14:46:31;;;;;;;3.22;1.23;;;20.40;61.50;;;;;;6321796;28;20016;-69
2022/10/24 14:49:35;;;;;;;3.58;1.45;;;20.40;61.20;;;;;;6321729;28;20071;-69
2022/10/24 14:52:36;;;;;;;4.43;1.60;;;20.40;61.40;;;;;;6321135;28;20032;-69
2022/10/24 14:55:37;;;;;;;3.50;1.52;;;20.40;61.50;;;;;;6321531;28;20084;-68
2022/10/24 14:58:39;;;;;;;2.33;1.35;;;20.40;61.50;;;;;;6321359;28;20031;-69
2022/10/24 15:01:39;;;;;;;3.58;1.38;;;20.40;61.40;;;;;;6321058;28;20509;-68
2022/10/24 15:04:45;;;;;;;6.35;1.70;;;20.40;61.40;;;;;;6320918;28;20020;-68
2022/10/24 15:07:51;;;;;;;4.15;1.40;;;20.40;61.50;;;;;;6321898;28;20027;-68
2022/10/24 15:11:10;;;;;;;;;;;20.40;61.50;;;;;;6321076;28;20031;-68
2022/10/24 15:14:36;;;;;;;3.15;1.33;;;20.40;61.40;;;;;;6319959;28;19904;-68
2022/10/24 15:17:38;;;;;;;2.97;1.30;;;20.40;61.40;;;;;;6321546;28;20031;-67
2022/10/24 15:20:39;;;;;;;2.15;1.42;;;20.40;61.40;;;;;;6320783;28;20024;-69
2022/10/24 15:23:53;;;;;;;4.95;1.30;;;20.40;61.30;;;;;;6320062;28;20028;-69
2022/10/24 15:27:09;;;;;;;3.30;1.23;;;20.40;61.40;;;;;;6320212;28;20145;-68
2022/10/24 15:30:19;;;;;;;2.05;1.20;;;20.40;61.30;;;;;;6320496;28;20111;-68
2022/10/24 15:33:19;;;;;;;2.60;1.25;;;20.30;61.20;;;;;;6320141;28;20085;-68
2022/10/24 15:36:25;;;;;;;2.95;1.40;;;20.40;61.40;;;;;;6320852;28;20032;-68
2022/10/24 15:39:26;;;;;;;1.77;1.20;;;20.40;61.40;;;;;;6319947;28;20085;-69
2022/10/24 15:42:27;;;;;;;2.88;1.50;;;20.40;61.30;;;;;;6320070;28;20020;-69
2022/10/24 15:45:27;;;;;;;2.80;1.60;;;20.40;61.30;;;;;;6319709;28;20016;-68
2022/10/24 15:48:28;;;;;;;1.98;1.17;;;20.40;61.40;;;;;;6319723;28;20116;-68
2022/10/24 15:51:29;;;;;;;1.85;1.35;;;20.40;61.40;;;;;;6319752;28;20052;-68
2022/10/24 15:54:30;;;;;;;2.17;1.20;;;20.30;62.20;;;;;;6319494;28;20020;-69
2022/10/24 15:57:30;;;;;;;2.28;1.30;;;20.40;61.40;;;;;;6317897;28;20360;-68
2022/10/24 16:00:31;;;;;;;2.67;1.10;;;20.40;61.40;;;;;;6319913;28;20053;-68
2022/10/24 16:03:34;;;;;;;2.97;1.45;;;20.30;61.30;;;;;;6319709;28;20103;-68
2022/10/24 16:06:34;;;;;;;3.22;1.30;;;20.30;61.40;;;;;;6319727;28;20028;-68
2022/10/24 16:09:35;;;;;;;1.58;1.08;;;20.30;61.40;;;;;;6319267;28;20098;-69